sensor_id;sensor_type;location;lat;lon;timestamp;temperature;humidity
3330;DHT22;1677;49.576;10.990;2022-08-01T00:01:15;22.50;94.50
3330;DHT22;1677;49.576;10.990;2022-08-01T00:03:40;22.30;95.80
3330;DHT22;1677;49.576;10.990;2022-08-01T00:06:06;22.20;96.50
3330;DHT22;1677;49.576;10.990;2022-08-01T00:08:32;22.00;97.10
3330;DHT22;1677;49.576;10.990;2022-08-01T00:10:57;21.90;97.30
3330;DHT22;1677;49.576;10.990;2022-08-01T00:13:23;22.00;97.90
3330;DHT22;1677;49.576;10.990;2022-08-01T00:15:48;22.70;96.30
3330;DHT22;1677;49.576;10.990;2022-08-01T00:18:14;23.30;95.10
3330;DHT22;1677;49.576;10.990;2022-08-01T00:20:39;23.50;94.10
3330;DHT22;1677;49.576;10.990;2022-08-01T00:23:05;23.80;93.50
3330;DHT22;1677;49.576;10.990;2022-08-01T00:25:30;23.80;93.30
3330;DHT22;1677;49.576;10.990;2022-08-01T00:27:56;23.70;93.70
3330;DHT22;1677;49.576;10.990;2022-08-01T00:30:21;23.20;94.20
3330;DHT22;1677;49.576;10.990;2022-08-01T00:32:47;22.90;95.40
3330;DHT22;1677;49.576;10.990;2022-08-01T00:35:13;22.50;96.40
3330;DHT22;1677;49.576;10.990;2022-08-01T00:37:38;22.30;97.00
3330;DHT22;1677;49.576;10.990;2022-08-01T00:40:05;22.00;98.40
3330;DHT22;1677;49.576;10.990;2022-08-01T00:42:31;21.70;98.70
3330;DHT22;1677;49.576;10.990;2022-08-01T00:44:56;21.60;99.40
3330;DHT22;1677;49.576;10.990;2022-08-01T00:47:22;21.40;99.90
3330;DHT22;1677;49.576;10.990;2022-08-01T00:49:47;21.40;99.90
3330;DHT22;1677;49.576;10.990;2022-08-01T00:52:13;21.60;99.80
3330;DHT22;1677;49.576;10.990;2022-08-01T00:54:39;22.10;99.40
3330;DHT22;1677;49.576;10.990;2022-08-01T00:57:05;22.80;97.50
3330;DHT22;1677;49.576;10.990;2022-08-01T00:59:30;23.10;96.60
3330;DHT22;1677;49.576;10.990;2022-08-01T01:01:56;23.30;95.60
3330;DHT22;1677;49.576;10.990;2022-08-01T01:04:22;23.30;95.60
3330;DHT22;1677;49.576;10.990;2022-08-01T01:07:07;23.10;95.90
3330;DHT22;1677;49.576;10.990;2022-08-01T01:12:26;22.40;97.70
3330;DHT22;1677;49.576;10.990;2022-08-01T01:15:04;22.00;98.80
3330;DHT22;1677;49.576;10.990;2022-08-01T01:20:08;21.60;99.90
3330;DHT22;1677;49.576;10.990;2022-08-01T01:28:16;21.20;99.90
3330;DHT22;1677;49.576;10.990;2022-08-01T01:30:45;21.00;99.90
3330;DHT22;1677;49.576;10.990;2022-08-01T01:33:12;21.30;99.90
3330;DHT22;1677;49.576;10.990;2022-08-01T01:35:42;22.00;99.80
3330;DHT22;1677;49.576;10.990;2022-08-01T01:38:21;22.50;98.10
3330;DHT22;1677;49.576;10.990;2022-08-01T01:40:50;22.90;97.00
3330;DHT22;1677;49.576;10.990;2022-08-01T01:43:18;22.90;96.30
3330;DHT22;1677;49.576;10.990;2022-08-01T01:45:47;22.70;97.00
3330;DHT22;1677;49.576;10.990;2022-08-01T01:48:16;22.50;97.30
3330;DHT22;1677;49.576;10.990;2022-08-01T01:50:45;22.20;98.30
3330;DHT22;1677;49.576;10.990;2022-08-01T01:53:13;21.90;98.80
3330;DHT22;1677;49.576;10.990;2022-08-01T01:55:43;21.60;99.70
3330;DHT22;1677;49.576;10.990;2022-08-01T01:58:11;21.40;99.90
3330;DHT22;1677;49.576;10.990;2022-08-01T02:00:39;21.30;99.90
3330;DHT22;1677;49.576;10.990;2022-08-01T02:03:07;21.10;99.90
3330;DHT22;1677;49.576;10.990;2022-08-01T02:05:35;21.00;99.90
3330;DHT22;1677;49.576;10.990;2022-08-01T02:08:03;20.90;99.90
3330;DHT22;1677;49.576;10.990;2022-08-01T02:10:31;21.00;99.90
3330;DHT22;1677;49.576;10.990;2022-08-01T02:12:59;21.50;99.90
3330;DHT22;1677;49.576;10.990;2022-08-01T02:15:27;22.10;98.60
3330;DHT22;1677;49.576;10.990;2022-08-01T02:17:54;22.50;97.30
3330;DHT22;1677;49.576;10.990;2022-08-01T02:20:22;22.80;96.10
3330;DHT22;1677;49.576;10.990;2022-08-01T02:22:53;22.80;95.80
3330;DHT22;1677;49.576;10.990;2022-08-01T02:25:33;22.60;96.10
3330;DHT22;1677;49.576;10.990;2022-08-01T02:28:04;22.20;96.80
3330;DHT22;1677;49.576;10.990;2022-08-01T02:30:33;21.80;97.90
3330;DHT22;1677;49.576;10.990;2022-08-01T02:33:06;21.60;98.80
3330;DHT22;1677;49.576;10.990;2022-08-01T02:35:35;21.40;99.30
3330;DHT22;1677;49.576;10.990;2022-08-01T02:38:05;21.10;99.90
3330;DHT22;1677;49.576;10.990;2022-08-01T02:40:33;21.00;99.90
3330;DHT22;1677;49.576;10.990;2022-08-01T02:43:02;20.90;99.90
3330;DHT22;1677;49.576;10.990;2022-08-01T02:45:28;20.80;99.90
3330;DHT22;1677;49.576;10.990;2022-08-01T02:47:59;20.70;99.90
3330;DHT22;1677;49.576;10.990;2022-08-01T02:50:26;20.50;99.90
3330;DHT22;1677;49.576;10.990;2022-08-01T02:52:54;20.80;99.90
3330;DHT22;1677;49.576;10.990;2022-08-01T02:55:20;21.30;99.90
3330;DHT22;1677;49.576;10.990;2022-08-01T02:57:48;21.80;99.30
3330;DHT22;1677;49.576;10.990;2022-08-01T03:00:15;22.20;97.80
3330;DHT22;1677;49.576;10.990;2022-08-01T03:02:43;22.30;97.00
3330;DHT22;1677;49.576;10.990;2022-08-01T03:05:11;22.30;96.70
3330;DHT22;1677;49.576;10.990;2022-08-01T03:07:38;22.00;97.50
3330;DHT22;1677;49.576;10.990;2022-08-01T03:10:05;21.70;98.00
3330;DHT22;1677;49.576;10.990;2022-08-01T03:12:33;21.40;98.90
3330;DHT22;1677;49.576;10.990;2022-08-01T03:15:00;21.20;99.70
3330;DHT22;1677;49.576;10.990;2022-08-01T03:17:28;20.80;99.90
3330;DHT22;1677;49.576;10.990;2022-08-01T03:19:56;20.70;99.90
3330;DHT22;1677;49.576;10.990;2022-08-01T03:22:24;20.50;99.90
3330;DHT22;1677;49.576;10.990;2022-08-01T03:24:52;20.40;99.90
3330;DHT22;1677;49.576;10.990;2022-08-01T03:27:22;20.30;99.90
3330;DHT22;1677;49.576;10.990;2022-08-01T03:29:50;20.10;99.90
3330;DHT22;1677;49.576;10.990;2022-08-01T03:32:18;20.30;99.90
3330;DHT22;1677;49.576;10.990;2022-08-01T03:34:45;20.80;99.90
3330;DHT22;1677;49.576;10.990;2022-08-01T03:37:21;21.30;99.90
3330;DHT22;1677;49.576;10.990;2022-08-01T03:39:57;21.80;99.80
3330;DHT22;1677;49.576;10.990;2022-08-01T03:42:30;22.00;98.60
3330;DHT22;1677;49.576;10.990;2022-08-01T03:45:02;21.90;98.50
3330;DHT22;1677;49.576;10.990;2022-08-01T03:47:32;21.70;98.80
3330;DHT22;1677;49.576;10.990;2022-08-01T03:50:03;21.30;99.70
3330;DHT22;1677;49.576;10.990;2022-08-01T03:52:30;21.10;99.90
3330;DHT22;1677;49.576;10.990;2022-08-01T03:54:59;20.80;99.90
3330;DHT22;1677;49.576;10.990;2022-08-01T03:57:28;20.60;99.90
3330;DHT22;1677;49.576;10.990;2022-08-01T03:59:58;20.40;99.90
3330;DHT22;1677;49.576;10.990;2022-08-01T04:02:26;20.20;99.90
3330;DHT22;1677;49.576;10.990;2022-08-01T04:04:53;20.00;99.90
3330;DHT22;1677;49.576;10.990;2022-08-01T04:07:30;19.80;99.90
3330;DHT22;1677;49.576;10.990;2022-08-01T04:09:56;19.80;99.90
3330;DHT22;1677;49.576;10.990;2022-08-01T04:12:22;20.00;99.90
3330;DHT22;1677;49.576;10.990;2022-08-01T04:14:48;20.50;99.90
3330;DHT22;1677;49.576;10.990;2022-08-01T04:17:15;21.00;99.90
3330;DHT22;1677;49.576;10.990;2022-08-01T04:19:41;21.40;99.90
3330;DHT22;1677;49.576;10.990;2022-08-01T04:22:06;21.60;99.90
3330;DHT22;1677;49.576;10.990;2022-08-01T04:24:34;21.80;99.50
3330;DHT22;1677;49.576;10.990;2022-08-01T04:27:02;21.60;99.60
3330;DHT22;1677;49.576;10.990;2022-08-01T04:29:29;21.30;99.90
3330;DHT22;1677;49.576;10.990;2022-08-01T04:31:56;21.10;99.90
3330;DHT22;1677;49.576;10.990;2022-08-01T04:34:26;20.90;99.90
3330;DHT22;1677;49.576;10.990;2022-08-01T04:36:55;20.70;99.90
3330;DHT22;1677;49.576;10.990;2022-08-01T04:39:24;20.60;99.90
3330;DHT22;1677;49.576;10.990;2022-08-01T04:41:53;20.50;99.90
3330;DHT22;1677;49.576;10.990;2022-08-01T04:44:22;20.40;99.90
3330;DHT22;1677;49.576;10.990;2022-08-01T04:46:48;20.30;99.90
3330;DHT22;1677;49.576;10.990;2022-08-01T04:49:15;20.20;99.90
3330;DHT22;1677;49.576;10.990;2022-08-01T04:51:55;20.20;99.90
3330;DHT22;1677;49.576;10.990;2022-08-01T04:54:26;20.30;99.90
3330;DHT22;1677;49.576;10.990;2022-08-01T04:56:53;20.90;99.90
3330;DHT22;1677;49.576;10.990;2022-08-01T04:59:21;21.50;99.90
3330;DHT22;1677;49.576;10.990;2022-08-01T05:02:05;22.00;98.50
3330;DHT22;1677;49.576;10.990;2022-08-01T05:04:32;22.30;97.80
3330;DHT22;1677;49.576;10.990;2022-08-01T05:06:58;22.40;97.80
3330;DHT22;1677;49.576;10.990;2022-08-01T05:09:23;22.30;98.00
3330;DHT22;1677;49.576;10.990;2022-08-01T05:11:49;22.10;98.80
3330;DHT22;1677;49.576;10.990;2022-08-01T05:14:14;21.80;99.90
3330;DHT22;1677;49.576;10.990;2022-08-01T05:16:40;21.60;99.90
3330;DHT22;1677;49.576;10.990;2022-08-01T05:19:07;21.40;99.90
3330;DHT22;1677;49.576;10.990;2022-08-01T05:21:34;21.30;99.90
3330;DHT22;1677;49.576;10.990;2022-08-01T05:23:59;21.20;99.90
3330;DHT22;1677;49.576;10.990;2022-08-01T05:26:25;21.20;99.90
3330;DHT22;1677;49.576;10.990;2022-08-01T05:28:50;21.10;99.90
3330;DHT22;1677;49.576;10.990;2022-08-01T05:31:16;21.20;99.90
3330;DHT22;1677;49.576;10.990;2022-08-01T05:33:42;21.10;99.90
3330;DHT22;1677;49.576;10.990;2022-08-01T05:36:07;21.30;99.90
3330;DHT22;1677;49.576;10.990;2022-08-01T05:38:33;22.00;99.90
3330;DHT22;1677;49.576;10.990;2022-08-01T05:40:58;22.60;99.90
3330;DHT22;1677;49.576;10.990;2022-08-01T05:43:24;23.10;99.00
3330;DHT22;1677;49.576;10.990;2022-08-01T05:45:50;23.40;98.20
3330;DHT22;1677;49.576;10.990;2022-08-01T05:48:16;23.50;97.90
3330;DHT22;1677;49.576;10.990;2022-08-01T05:50:41;23.40;98.10
3330;DHT22;1677;49.576;10.990;2022-08-01T05:53:07;23.20;98.50
3330;DHT22;1677;49.576;10.990;2022-08-01T05:55:33;23.00;98.70
3330;DHT22;1677;49.576;10.990;2022-08-01T05:57:58;22.90;99.20
3330;DHT22;1677;49.576;10.990;2022-08-01T06:00:24;22.60;99.50
3330;DHT22;1677;49.576;10.990;2022-08-01T06:02:49;22.30;99.90
3330;DHT22;1677;49.576;10.990;2022-08-01T06:05:15;22.20;99.90
3330;DHT22;1677;49.576;10.990;2022-08-01T06:07:41;22.10;99.90
3330;DHT22;1677;49.576;10.990;2022-08-01T06:10:07;22.10;99.90
3330;DHT22;1677;49.576;10.990;2022-08-01T06:12:34;22.00;99.90
3330;DHT22;1677;49.576;10.990;2022-08-01T06:15:00;22.00;99.90
3330;DHT22;1677;49.576;10.990;2022-08-01T06:17:25;22.30;99.90
3330;DHT22;1677;49.576;10.990;2022-08-01T06:19:51;22.80;99.90
3330;DHT22;1677;49.576;10.990;2022-08-01T06:22:17;23.30;98.90
3330;DHT22;1677;49.576;10.990;2022-08-01T06:24:42;23.90;97.30
3330;DHT22;1677;49.576;10.990;2022-08-01T06:27:08;24.30;96.10
3330;DHT22;1677;49.576;10.990;2022-08-01T06:29:33;24.40;95.60
3330;DHT22;1677;49.576;10.990;2022-08-01T06:32:00;24.20;95.80
3330;DHT22;1677;49.576;10.990;2022-08-01T06:34:25;23.90;96.40
3330;DHT22;1677;49.576;10.990;2022-08-01T06:36:51;23.60;97.20
3330;DHT22;1677;49.576;10.990;2022-08-01T06:39:17;23.30;97.80
3330;DHT22;1677;49.576;10.990;2022-08-01T06:41:42;23.10;98.50
3330;DHT22;1677;49.576;10.990;2022-08-01T06:44:11;22.80;99.00
3330;DHT22;1677;49.576;10.990;2022-08-01T06:46:37;22.60;99.60
3330;DHT22;1677;49.576;10.990;2022-08-01T06:49:02;22.50;99.90
3330;DHT22;1677;49.576;10.990;2022-08-01T06:51:28;22.50;99.90
3330;DHT22;1677;49.576;10.990;2022-08-01T06:53:53;22.40;99.90
3330;DHT22;1677;49.576;10.990;2022-08-01T06:56:19;22.40;99.90
3330;DHT22;1677;49.576;10.990;2022-08-01T06:58:45;22.70;99.90
3330;DHT22;1677;49.576;10.990;2022-08-01T07:01:10;23.20;99.30
3330;DHT22;1677;49.576;10.990;2022-08-01T07:03:37;23.90;97.90
3330;DHT22;1677;49.576;10.990;2022-08-01T07:06:03;24.40;96.60
3330;DHT22;1677;49.576;10.990;2022-08-01T07:08:29;24.80;95.10
3330;DHT22;1677;49.576;10.990;2022-08-01T07:10:54;24.70;95.20
3330;DHT22;1677;49.576;10.990;2022-08-01T07:13:21;24.60;95.20
3330;DHT22;1677;49.576;10.990;2022-08-01T07:15:48;24.30;95.80
3330;DHT22;1677;49.576;10.990;2022-08-01T07:18:14;24.00;96.70
3330;DHT22;1677;49.576;10.990;2022-08-01T07:20:39;23.70;97.30
3330;DHT22;1677;49.576;10.990;2022-08-01T07:23:05;23.50;97.90
3330;DHT22;1677;49.576;10.990;2022-08-01T07:25:30;23.30;98.60
3330;DHT22;1677;49.576;10.990;2022-08-01T07:27:56;23.20;98.70
3330;DHT22;1677;49.576;10.990;2022-08-01T07:30:21;23.00;99.40
3330;DHT22;1677;49.576;10.990;2022-08-01T07:32:47;22.90;99.50
3330;DHT22;1677;49.576;10.990;2022-08-01T07:35:13;22.90;99.90
3330;DHT22;1677;49.576;10.990;2022-08-01T07:37:39;22.80;99.90
3330;DHT22;1677;49.576;10.990;2022-08-01T07:40:05;23.20;99.70
3330;DHT22;1677;49.576;10.990;2022-08-01T07:42:31;23.80;98.30
3330;DHT22;1677;49.576;10.990;2022-08-01T07:44:57;24.40;96.80
3330;DHT22;1677;49.576;10.990;2022-08-01T07:47:25;24.90;95.60
3330;DHT22;1677;49.576;10.990;2022-08-01T07:49:52;25.50;94.10
3330;DHT22;1677;49.576;10.990;2022-08-01T07:52:18;25.40;93.60
3330;DHT22;1677;49.576;10.990;2022-08-01T07:54:44;25.10;93.80
3330;DHT22;1677;49.576;10.990;2022-08-01T07:57:09;24.90;94.10
3330;DHT22;1677;49.576;10.990;2022-08-01T07:59:35;24.60;94.80
3330;DHT22;1677;49.576;10.990;2022-08-01T08:02:00;24.30;95.60
3330;DHT22;1677;49.576;10.990;2022-08-01T08:04:27;24.10;96.20
3330;DHT22;1677;49.576;10.990;2022-08-01T08:06:53;23.90;96.60
3330;DHT22;1677;49.576;10.990;2022-08-01T08:09:19;23.70;96.90
3330;DHT22;1677;49.576;10.990;2022-08-01T08:11:45;23.60;97.30
3330;DHT22;1677;49.576;10.990;2022-08-01T08:14:11;23.50;97.50
3330;DHT22;1677;49.576;10.990;2022-08-01T08:16:37;23.50;98.00
3330;DHT22;1677;49.576;10.990;2022-08-01T08:19:03;23.60;97.70
3330;DHT22;1677;49.576;10.990;2022-08-01T08:21:28;24.10;96.80
3330;DHT22;1677;49.576;10.990;2022-08-01T08:23:55;24.60;95.20
3330;DHT22;1677;49.576;10.990;2022-08-01T08:26:39;24.90;94.30
3330;DHT22;1677;49.576;10.990;2022-08-01T08:29:06;25.40;93.60
3330;DHT22;1677;49.576;10.990;2022-08-01T08:31:31;25.80;92.50
3330;DHT22;1677;49.576;10.990;2022-08-01T08:33:58;25.50;91.80
3330;DHT22;1677;49.576;10.990;2022-08-01T08:36:23;25.20;92.60
3330;DHT22;1677;49.576;10.990;2022-08-01T08:38:49;25.00;92.40
3330;DHT22;1677;49.576;10.990;2022-08-01T08:41:15;24.60;92.30
3330;DHT22;1677;49.576;10.990;2022-08-01T08:43:41;24.40;92.70
3330;DHT22;1677;49.576;10.990;2022-08-01T08:46:08;24.30;93.30
3330;DHT22;1677;49.576;10.990;2022-08-01T08:48:34;24.20;93.90
3330;DHT22;1677;49.576;10.990;2022-08-01T08:51:00;24.20;94.00
3330;DHT22;1677;49.576;10.990;2022-08-01T08:53:27;24.10;94.00
3330;DHT22;1677;49.576;10.990;2022-08-01T08:55:53;24.00;93.20
3330;DHT22;1677;49.576;10.990;2022-08-01T08:58:21;24.00;93.70
3330;DHT22;1677;49.576;10.990;2022-08-01T09:00:47;24.10;94.20
3330;DHT22;1677;49.576;10.990;2022-08-01T09:03:13;24.50;93.10
3330;DHT22;1677;49.576;10.990;2022-08-01T09:05:39;25.20;91.70
3330;DHT22;1677;49.576;10.990;2022-08-01T09:08:08;26.00;89.30
3330;DHT22;1677;49.576;10.990;2022-08-01T09:10:33;26.40;86.10
3330;DHT22;1677;49.576;10.990;2022-08-01T09:13:17;27.00;81.90
3330;DHT22;1677;49.576;10.990;2022-08-01T09:18:23;26.30;80.80
3330;DHT22;1677;49.576;10.990;2022-08-01T09:20:49;26.00;80.60
3330;DHT22;1677;49.576;10.990;2022-08-01T09:23:34;25.80;82.40
3330;DHT22;1677;49.576;10.990;2022-08-01T09:26:00;25.50;83.50
3330;DHT22;1677;49.576;10.990;2022-08-01T09:28:31;25.30;85.30
3330;DHT22;1677;49.576;10.990;2022-08-01T09:30:57;25.10;86.30
3330;DHT22;1677;49.576;10.990;2022-08-01T09:33:23;25.00;87.50
3330;DHT22;1677;49.576;10.990;2022-08-01T09:35:56;24.90;89.00
3330;DHT22;1677;49.576;10.990;2022-08-01T09:38:24;24.80;89.30
3330;DHT22;1677;49.576;10.990;2022-08-01T09:40:58;24.70;88.60
3330;DHT22;1677;49.576;10.990;2022-08-01T09:43:26;24.90;87.90
3330;DHT22;1677;49.576;10.990;2022-08-01T09:45:52;25.50;83.80
3330;DHT22;1677;49.576;10.990;2022-08-01T09:48:19;26.00;81.10
3330;DHT22;1677;49.576;10.990;2022-08-01T09:50:46;26.40;79.50
3330;DHT22;1677;49.576;10.990;2022-08-01T09:53:12;26.70;77.40
3330;DHT22;1677;49.576;10.990;2022-08-01T09:55:39;26.90;76.20
3330;DHT22;1677;49.576;10.990;2022-08-01T09:58:05;26.70;76.40
3330;DHT22;1677;49.576;10.990;2022-08-01T10:00:32;26.50;78.60
3330;DHT22;1677;49.576;10.990;2022-08-01T10:02:58;26.10;80.60
3330;DHT22;1677;49.576;10.990;2022-08-01T10:05:32;25.70;82.30
3330;DHT22;1677;49.576;10.990;2022-08-01T10:07:59;25.50;83.90
3330;DHT22;1677;49.576;10.990;2022-08-01T10:10:26;25.40;84.10
3330;DHT22;1677;49.576;10.990;2022-08-01T10:12:52;25.40;84.10
3330;DHT22;1677;49.576;10.990;2022-08-01T10:15:18;25.40;84.30
3330;DHT22;1677;49.576;10.990;2022-08-01T10:17:56;25.50;84.40
3330;DHT22;1677;49.576;10.990;2022-08-01T10:20:27;25.70;82.80
3330;DHT22;1677;49.576;10.990;2022-08-01T10:22:54;25.80;83.00
3330;DHT22;1677;49.576;10.990;2022-08-01T10:25:21;26.30;80.90
3330;DHT22;1677;49.576;10.990;2022-08-01T10:27:49;26.90;76.50
3330;DHT22;1677;49.576;10.990;2022-08-01T10:30:15;27.50;75.90
3330;DHT22;1677;49.576;10.990;2022-08-01T10:32:41;28.10;70.80
3330;DHT22;1677;49.576;10.990;2022-08-01T10:35:10;28.20;66.70
3330;DHT22;1677;49.576;10.990;2022-08-01T10:37:41;28.60;66.40
3330;DHT22;1677;49.576;10.990;2022-08-01T10:40:08;28.50;66.80
3330;DHT22;1677;49.576;10.990;2022-08-01T10:42:34;28.10;66.80
3330;DHT22;1677;49.576;10.990;2022-08-01T10:45:01;27.80;68.50
3330;DHT22;1677;49.576;10.990;2022-08-01T10:47:40;27.50;69.70
3330;DHT22;1677;49.576;10.990;2022-08-01T10:50:15;27.40;70.20
3330;DHT22;1677;49.576;10.990;2022-08-01T10:58:13;26.70;70.80
3330;DHT22;1677;49.576;10.990;2022-08-01T11:00:39;26.50;72.20
3330;DHT22;1677;49.576;10.990;2022-08-01T11:03:04;26.50;73.20
3330;DHT22;1677;49.576;10.990;2022-08-01T11:05:32;27.00;71.40
3330;DHT22;1677;49.576;10.990;2022-08-01T11:08:02;27.70;66.70
3330;DHT22;1677;49.576;10.990;2022-08-01T11:10:41;28.20;64.10
3330;DHT22;1677;49.576;10.990;2022-08-01T11:13:08;28.40;62.20
3330;DHT22;1677;49.576;10.990;2022-08-01T11:15:37;28.50;61.30
3330;DHT22;1677;49.576;10.990;2022-08-01T11:18:28;28.40;61.80
3330;DHT22;1677;49.576;10.990;2022-08-01T11:20:56;28.10;62.50
3330;DHT22;1677;49.576;10.990;2022-08-01T11:23:23;27.70;65.70
3330;DHT22;1677;49.576;10.990;2022-08-01T11:30:45;26.90;71.20
3330;DHT22;1677;49.576;10.990;2022-08-01T11:33:12;26.80;70.50
3330;DHT22;1677;49.576;10.990;2022-08-01T11:38:40;26.60;72.60
3330;DHT22;1677;49.576;10.990;2022-08-01T11:44:05;26.70;71.50
3330;DHT22;1677;49.576;10.990;2022-08-01T11:54:46;28.40;61.40
3330;DHT22;1677;49.576;10.990;2022-08-01T11:57:24;28.70;59.60
3330;DHT22;1677;49.576;10.990;2022-08-01T11:59:52;28.60;62.70
3330;DHT22;1677;49.576;10.990;2022-08-01T12:02:31;28.40;64.80
3330;DHT22;1677;49.576;10.990;2022-08-01T12:05:09;27.90;66.30
3330;DHT22;1677;49.576;10.990;2022-08-01T12:07:36;27.70;67.50
3330;DHT22;1677;49.576;10.990;2022-08-01T12:10:05;27.30;71.00
3330;DHT22;1677;49.576;10.990;2022-08-01T12:12:33;27.30;73.70
3330;DHT22;1677;49.576;10.990;2022-08-01T12:15:02;27.30;73.10
3330;DHT22;1677;49.576;10.990;2022-08-01T12:17:59;27.30;73.00
3330;DHT22;1677;49.576;10.990;2022-08-01T12:20:27;27.20;74.20
3330;DHT22;1677;49.576;10.990;2022-08-01T12:22:57;27.30;74.30
3330;DHT22;1677;49.576;10.990;2022-08-01T12:25:23;27.50;73.40
3330;DHT22;1677;49.576;10.990;2022-08-01T12:27:49;27.90;69.20
3330;DHT22;1677;49.576;10.990;2022-08-01T12:30:20;28.50;68.30
3330;DHT22;1677;49.576;10.990;2022-08-01T12:32:51;29.40;66.90
3330;DHT22;1677;49.576;10.990;2022-08-01T12:35:19;30.30;62.20
3330;DHT22;1677;49.576;10.990;2022-08-01T12:37:49;30.90;58.40
3330;DHT22;1677;49.576;10.990;2022-08-01T12:42:45;31.40;56.50
3330;DHT22;1677;49.576;10.990;2022-08-01T12:45:14;31.30;57.20
3330;DHT22;1677;49.576;10.990;2022-08-01T12:47:41;30.90;56.30
3330;DHT22;1677;49.576;10.990;2022-08-01T12:50:12;30.50;56.60
3330;DHT22;1677;49.576;10.990;2022-08-01T12:52:38;30.30;57.70
3330;DHT22;1677;49.576;10.990;2022-08-01T12:55:09;30.10;57.40
3330;DHT22;1677;49.576;10.990;2022-08-01T12:57:38;30.00;56.90
3330;DHT22;1677;49.576;10.990;2022-08-01T13:00:10;29.90;56.20
3330;DHT22;1677;49.576;10.990;2022-08-01T13:02:36;29.70;55.50
3330;DHT22;1677;49.576;10.990;2022-08-01T13:05:03;29.60;55.70
3330;DHT22;1677;49.576;10.990;2022-08-01T13:07:44;29.70;56.30
3330;DHT22;1677;49.576;10.990;2022-08-01T13:10:11;30.20;54.50
3330;DHT22;1677;49.576;10.990;2022-08-01T13:12:38;30.80;52.20
3330;DHT22;1677;49.576;10.990;2022-08-01T13:15:39;31.10;51.20
3330;DHT22;1677;49.576;10.990;2022-08-01T13:18:27;31.60;49.90
3330;DHT22;1677;49.576;10.990;2022-08-01T13:21:25;31.80;48.50
3330;DHT22;1677;49.576;10.990;2022-08-01T13:24:09;31.50;48.90
3330;DHT22;1677;49.576;10.990;2022-08-01T13:29:12;30.80;51.10
3330;DHT22;1677;49.576;10.990;2022-08-01T13:31:40;30.40;51.60
3330;DHT22;1677;49.576;10.990;2022-08-01T13:34:06;30.10;52.50
3330;DHT22;1677;49.576;10.990;2022-08-01T13:36:32;29.90;51.50
3330;DHT22;1677;49.576;10.990;2022-08-01T13:38:58;29.80;53.10
3330;DHT22;1677;49.576;10.990;2022-08-01T13:41:43;29.60;51.70
3330;DHT22;1677;49.576;10.990;2022-08-01T13:44:09;29.50;51.90
3330;DHT22;1677;49.576;10.990;2022-08-01T13:46:37;29.50;52.50
3330;DHT22;1677;49.576;10.990;2022-08-01T13:49:03;29.70;51.60
3330;DHT22;1677;49.576;10.990;2022-08-01T13:51:29;30.40;49.50
3330;DHT22;1677;49.576;10.990;2022-08-01T13:53:55;30.90;47.60
3330;DHT22;1677;49.576;10.990;2022-08-01T13:56:20;31.20;47.10
3330;DHT22;1677;49.576;10.990;2022-08-01T13:58:46;31.40;46.70
3330;DHT22;1677;49.576;10.990;2022-08-01T14:01:13;31.50;46.20
3330;DHT22;1677;49.576;10.990;2022-08-01T14:03:38;31.60;45.30
3330;DHT22;1677;49.576;10.990;2022-08-01T14:06:04;31.40;45.30
3330;DHT22;1677;49.576;10.990;2022-08-01T14:08:30;31.00;46.10
3330;DHT22;1677;49.576;10.990;2022-08-01T14:10:56;30.60;47.20
3330;DHT22;1677;49.576;10.990;2022-08-01T14:13:24;30.30;48.20
3330;DHT22;1677;49.576;10.990;2022-08-01T14:15:50;29.90;48.30
3330;DHT22;1677;49.576;10.990;2022-08-01T14:18:16;29.60;48.00
3330;DHT22;1677;49.576;10.990;2022-08-01T14:20:42;29.40;49.30
3330;DHT22;1677;49.576;10.990;2022-08-01T14:23:08;29.20;48.10
3330;DHT22;1677;49.576;10.990;2022-08-01T14:25:37;29.10;48.90
3330;DHT22;1677;49.576;10.990;2022-08-01T14:28:03;29.10;49.80
3330;DHT22;1677;49.576;10.990;2022-08-01T14:30:29;29.50;48.60
3330;DHT22;1677;49.576;10.990;2022-08-01T14:32:54;30.00;47.70
3330;DHT22;1677;49.576;10.990;2022-08-01T14:35:20;30.70;46.00
3330;DHT22;1677;49.576;10.990;2022-08-01T14:37:46;30.80;44.10
3330;DHT22;1677;49.576;10.990;2022-08-01T14:40:12;31.10;43.90
3330;DHT22;1677;49.576;10.990;2022-08-01T14:42:39;31.20;44.00
3330;DHT22;1677;49.576;10.990;2022-08-01T14:45:06;31.10;44.80
3330;DHT22;1677;49.576;10.990;2022-08-01T14:47:38;30.90;45.50
3330;DHT22;1677;49.576;10.990;2022-08-01T14:50:07;30.50;45.30
3330;DHT22;1677;49.576;10.990;2022-08-01T14:52:34;30.10;46.30
3330;DHT22;1677;49.576;10.990;2022-08-01T14:55:00;29.60;50.20
3330;DHT22;1677;49.576;10.990;2022-08-01T14:57:26;29.10;52.60
3330;DHT22;1677;49.576;10.990;2022-08-01T14:59:52;28.80;54.30
3330;DHT22;1677;49.576;10.990;2022-08-01T15:02:19;28.60;55.40
3330;DHT22;1677;49.576;10.990;2022-08-01T15:04:45;28.50;56.80
3330;DHT22;1677;49.576;10.990;2022-08-01T15:07:12;28.30;57.90
3330;DHT22;1677;49.576;10.990;2022-08-01T15:09:38;28.40;57.80
3330;DHT22;1677;49.576;10.990;2022-08-01T15:12:04;29.10;56.30
3330;DHT22;1677;49.576;10.990;2022-08-01T15:14:29;29.70;55.10
3330;DHT22;1677;49.576;10.990;2022-08-01T15:17:14;29.90;53.90
3330;DHT22;1677;49.576;10.990;2022-08-01T15:19:41;30.20;52.70
3330;DHT22;1677;49.576;10.990;2022-08-01T15:22:06;30.50;52.20
3330;DHT22;1677;49.576;10.990;2022-08-01T15:24:32;30.60;51.10
3330;DHT22;1677;49.576;10.990;2022-08-01T15:26:57;30.70;51.20
3330;DHT22;1677;49.576;10.990;2022-08-01T15:29:23;30.70;51.00
3330;DHT22;1677;49.576;10.990;2022-08-01T15:31:49;30.40;50.80
3330;DHT22;1677;49.576;10.990;2022-08-01T15:34:15;30.00;51.50
3330;DHT22;1677;49.576;10.990;2022-08-01T15:36:41;29.70;53.30
3330;DHT22;1677;49.576;10.990;2022-08-01T15:39:08;29.30;53.80
3330;DHT22;1677;49.576;10.990;2022-08-01T15:41:34;29.00;54.40
3330;DHT22;1677;49.576;10.990;2022-08-01T15:44:00;28.80;55.50
3330;DHT22;1677;49.576;10.990;2022-08-01T15:46:25;28.60;56.00
3330;DHT22;1677;49.576;10.990;2022-08-01T15:48:51;28.30;56.90
3330;DHT22;1677;49.576;10.990;2022-08-01T15:51:16;28.40;57.20
3330;DHT22;1677;49.576;10.990;2022-08-01T15:53:42;28.90;55.90
3330;DHT22;1677;49.576;10.990;2022-08-01T15:56:07;29.40;54.00
3330;DHT22;1677;49.576;10.990;2022-08-01T15:58:33;29.80;51.40
3330;DHT22;1677;49.576;10.990;2022-08-01T16:00:59;29.90;50.50
3330;DHT22;1677;49.576;10.990;2022-08-01T16:03:24;30.00;50.30
3330;DHT22;1677;49.576;10.990;2022-08-01T16:05:52;30.00;50.70
3330;DHT22;1677;49.576;10.990;2022-08-01T16:08:18;29.90;51.50
3330;DHT22;1677;49.576;10.990;2022-08-01T16:10:43;29.80;52.90
3330;DHT22;1677;49.576;10.990;2022-08-01T16:13:09;29.40;53.80
3330;DHT22;1677;49.576;10.990;2022-08-01T16:15:36;29.10;55.00
3330;DHT22;1677;49.576;10.990;2022-08-01T16:18:03;28.70;55.30
3330;DHT22;1677;49.576;10.990;2022-08-01T16:20:29;28.60;55.70
3330;DHT22;1677;49.576;10.990;2022-08-01T16:22:55;28.20;56.80
3330;DHT22;1677;49.576;10.990;2022-08-01T16:25:20;28.00;57.80
3330;DHT22;1677;49.576;10.990;2022-08-01T16:27:46;27.90;58.10
3330;DHT22;1677;49.576;10.990;2022-08-01T16:30:12;27.70;58.30
3330;DHT22;1677;49.576;10.990;2022-08-01T16:32:37;27.80;58.50